CXADT SUMO-SBBG
Flight info
| Callsign | CXADT |
|---|---|
| Flight time | N/A |
| Altitude | 8000 |
| Route | MIMOL A310 BGE |
| Aircraft | C310/L-SDFGR/S |
Departure
| Time | 2026-05-07 21:17 |
|---|---|
| Airport | Cerro Largo International Airport (SUMO) |
Arrival
| Time | N/A |
|---|---|
| Airport | Comandante Gustavo Kraemer Airport (SBBG) |
| Time | Latitude | Longitude | Altitude | Speed | Heading |
|---|---|---|---|---|---|
| 2026-05-07 21:06 | -32.33924 | -54.22299 | 370 ft | 0 kts | 146° |
| 2026-05-07 21:14 | -32.33933 | -54.22285 | 370 ft | 3 kts | 104° |
| 2026-05-07 21:14 | -32.33933 | -54.22258 | 370 ft | 6 kts | 104° |
| 2026-05-07 21:14 | -32.33957 | -54.22235 | 370 ft | 7 kts | 156° |
| 2026-05-07 21:15 | -32.34008 | -54.22203 | 370 ft | 11 kts | 156° |
| 2026-05-07 21:15 | -32.34079 | -54.22245 | 370 ft | 15 kts | 239° |
| 2026-05-07 21:16 | -32.34111 | -54.22357 | 370 ft | 11 kts | 257° |
| 2026-05-07 21:16 | -32.34133 | -54.22355 | 370 ft | 4 kts | 93° |
| 2026-05-07 21:16 | -32.34110 | -54.22317 | 370 ft | 8 kts | 39° |
| 2026-05-07 21:16 | -32.34103 | -54.22297 | 371 ft | 0 kts | 58° |
| 2026-05-07 21:17 | -32.34056 | -54.22203 | 370 ft | 41 kts | 59° |
| 2026-05-07 21:17 | -32.33821 | -54.21743 | 374 ft | 85 kts | 58° |
| 2026-05-07 21:17 | -32.33480 | -54.21085 | 562 ft | 98 kts | 58° |
| 2026-05-07 21:17 | -32.33138 | -54.20465 | 1045 ft | 84 kts | 50° |
| 2026-05-07 21:18 | -32.32572 | -54.20176 | 1214 ft | 97 kts | 6° |
| 2026-05-07 21:18 | -32.31945 | -54.20288 | 1522 ft | 93 kts | 337° |
| 2026-05-07 21:18 | -32.31341 | -54.20607 | 1748 ft | 97 kts | 333° |
| 2026-05-07 21:18 | -32.30746 | -54.20996 | 1955 ft | 99 kts | 329° |
| 2026-05-07 21:19 | -32.30118 | -54.21341 | 2174 ft | 101 kts | 338° |
| 2026-05-07 21:19 | -32.29408 | -54.21467 | 2386 ft | 108 kts | 353° |
| 2026-05-07 21:19 | -32.28649 | -54.21431 | 2587 ft | 109 kts | 351° |
| 2026-05-07 21:19 | -32.27891 | -54.21397 | 2802 ft | 110 kts | 352° |
| 2026-05-07 21:20 | -32.27134 | -54.21326 | 2985 ft | 107 kts | 352° |
| 2026-05-07 21:20 | -32.26404 | -54.21249 | 3179 ft | 104 kts | 352° |
| 2026-05-07 21:20 | -32.25682 | -54.21169 | 3378 ft | 105 kts | 352° |
| 2026-05-07 21:20 | -32.24994 | -54.21089 | 3560 ft | 105 kts | 352° |
| 2026-05-07 21:21 | -32.24272 | -54.21005 | 3753 ft | 103 kts | 351° |
| 2026-05-07 21:21 | -32.23570 | -54.20920 | 3941 ft | 100 kts | 351° |
| 2026-05-07 21:21 | -32.22881 | -54.20840 | 4135 ft | 99 kts | 351° |
| 2026-05-07 21:21 | -32.22205 | -54.20758 | 4329 ft | 96 kts | 350° |
| 2026-05-07 21:22 | -32.21549 | -54.20680 | 4517 ft | 93 kts | 350° |
| 2026-05-07 21:22 | -32.20911 | -54.20604 | 4701 ft | 92 kts | 349° |
| 2026-05-07 21:22 | -32.20282 | -54.20530 | 4885 ft | 90 kts | 348° |
| 2026-05-07 21:22 | -32.19668 | -54.20458 | 5072 ft | 88 kts | 348° |